Time;durP1;ratioP1;P1;durP2;ratioP2;P2;SDS_P1;SDS_P2;PMS_P1;PMS_P2;Temp;Humidity;BMP_temperature;BMP_pressure;BME280_temperature;BME280_humidity;BME280_pressure;Samples;Min_cycle;Max_cycle;Signal;HPM_P1;HPM_P2
2023/06/18 00:02:04;;;;;;;15.50;12.02;;;;;;;-148.88;83.06;-17125.47;5034987;28;20036;-85
2023/06/18 00:04:31;;;;;;;15.38;12.13;;;;;;;-148.88;84.13;-17125.47;5027089;28;20051;-85
2023/06/18 00:06:56;;;;;;;14.10;12.23;;;;;;;-148.88;83.79;-17125.47;5036019;28;20480;-85
2023/06/18 00:09:22;;;;;;;13.85;12.40;;;;;;;-148.88;85.12;-17125.47;5035077;28;20100;-85
2023/06/18 00:11:48;;;;;;;16.08;13.38;;;;;;;-148.88;86.34;-17125.47;5035096;28;20025;-86
2023/06/18 00:14:14;;;;;;;14.25;12.73;;;;;;;-148.88;86.05;-17125.47;5034235;28;20143;-85
2023/06/18 00:16:39;;;;;;;14.10;12.60;;;;;;;-148.88;86.56;-17125.47;5033994;28;20138;-86
2023/06/18 00:19:04;;;;;;;15.90;13.55;;;;;;;-148.88;87.22;-17125.47;5033972;28;20018;-85
2023/06/18 00:21:30;;;;;;;18.27;13.55;;;;;;;-148.88;86.74;-17125.47;5033835;28;20446;-86
2023/06/18 00:23:56;;;;;;;17.00;12.45;;;;;;;-148.88;86.66;-17125.47;5034456;28;20028;-85
2023/06/18 00:26:23;;;;;;;15.70;12.88;;;;;;;-148.88;86.59;-17125.47;5016254;28;20440;-86
2023/06/18 00:28:48;;;;;;;15.13;12.77;;;;;;;-148.88;86.55;-17125.47;5016238;28;20056;-86
2023/06/18 00:31:14;;;;;;;13.57;11.10;;;;;;;-148.88;85.95;-17125.47;5033679;28;20102;-86
2023/06/18 00:33:39;;;;;;;19.75;12.15;;;;;;;-148.88;85.78;-17125.47;5020067;28;20514;-86
2023/06/18 00:36:06;;;;;;;13.50;11.10;;;;;;;-148.88;86.44;-17125.47;5020316;28;20033;-85
2023/06/18 00:38:33;;;;;;;15.45;10.95;;;;;;;-148.88;85.75;-17125.47;5019937;28;20029;-85
2023/06/18 00:40:59;;;;;;;11.70;10.45;;;;;;;-148.88;84.95;-17125.47;5037272;28;20396;-85
2023/06/18 00:43:28;;;;;;;14.30;10.80;;;;;;;-148.88;85.31;-17125.47;5038177;28;20022;-85
2023/06/18 00:45:55;;;;;;;13.43;10.93;;;;;;;-148.88;85.17;-17125.47;5019510;28;20029;-86
2023/06/18 00:48:21;;;;;;;14.27;11.32;;;;;;;-148.88;86.22;-17125.47;5037535;28;20053;-86
2023/06/18 00:50:47;;;;;;;16.02;14.30;;;;;;;-148.88;87.17;-17125.47;5019488;28;20057;-85
2023/06/18 00:53:13;;;;;;;16.70;13.75;;;;;;;-148.88;87.91;-17125.47;5037195;28;20480;-85
2023/06/18 00:55:41;;;;;;;15.40;13.82;;;;;;;-148.88;87.79;-17125.47;5019287;28;20025;-85
2023/06/18 00:58:06;;;;;;;16.50;13.45;;;;;;;-148.88;89.31;-17125.47;5019315;28;20124;-85
2023/06/18 01:00:34;;;;;;;15.13;13.05;;;;;;;-148.88;88.70;-17125.47;5019077;28;20112;-86
2023/06/18 01:03:02;;;;;;;15.02;13.52;;;;;;;-148.88;89.86;-17125.47;5019279;28;20022;-86
2023/06/18 01:05:31;;;;;;;14.85;13.30;;;;;;;-148.88;91.10;-17125.47;5018703;28;20022;-85
2023/06/18 01:07:59;;;;;;;15.15;13.57;;;;;;;-148.88;90.22;-17125.47;5036970;28;20036;-85
2023/06/18 01:10:28;;;;;;;14.40;12.90;;;;;;;-148.88;90.68;-17125.47;5036896;28;20021;-85
2023/06/18 01:12:57;;;;;;;15.73;13.52;;;;;;;-148.88;90.44;-17125.47;5019664;28;20025;-85
2023/06/18 01:15:23;;;;;;;19.67;13.25;;;;;;;-148.88;90.63;-17125.47;5037164;28;20025;-85
2023/06/18 01:17:50;;;;;;;15.85;12.90;;;;;;;-148.88;90.56;-17125.47;5018836;28;20392;-85
2023/06/18 01:20:17;;;;;;;17.95;14.32;;;;;;;-148.88;90.54;-17125.47;5036929;28;20025;-86
2023/06/18 01:22:51;;;;;;;15.70;13.73;;;;;;;-148.88;90.73;-17125.47;5019146;28;20033;-85
2023/06/18 01:25:18;;;;;;;15.95;13.98;;;;;;;-148.88;90.19;-17125.47;5036228;28;20025;-85
2023/06/18 01:27:46;;;;;;;16.35;14.30;;;;;;;-148.88;90.62;-17125.47;5018870;28;20226;-85
2023/06/18 01:30:13;;;;;;;16.67;13.65;;;;;;;-148.88;90.54;-17125.47;5018216;28;20021;-85
2023/06/18 01:32:39;;;;;;;16.10;13.93;;;;;;;-148.88;90.59;-17125.47;5019156;28;20029;-85
2023/06/18 01:35:05;;;;;;;17.20;13.15;;;;;;;-148.88;90.16;-17125.47;5036025;28;20036;-86
2023/06/18 01:37:44;;;;;;;15.60;12.80;;;;;;;-148.88;90.58;-17125.47;5018495;28;20068;-85
2023/06/18 01:40:19;;;;;;;16.00;13.07;;;;;;;-148.88;90.07;-17125.47;5018540;28;20022;-86
2023/06/18 01:42:52;;;;;;;17.35;14.23;;;;;;;-148.88;92.04;-17125.47;5017821;28;20509;-86
2023/06/18 01:45:24;;;;;;;19.13;14.90;;;;;;;-148.88;92.85;-17125.47;5017972;28;20033;-85
2023/06/18 01:47:53;;;;;;;18.00;14.98;;;;;;;-148.88;93.04;-17125.47;5018251;28;20083;-85
2023/06/18 01:50:20;;;;;;;16.63;13.38;;;;;;;-148.88;92.60;-17125.47;5036044;28;20056;-85
2023/06/18 01:52:47;;;;;;;16.60;14.50;;;;;;;-148.88;92.59;-17125.47;5017966;28;20025;-85
2023/06/18 01:55:13;;;;;;;19.05;15.43;;;;;;;-148.88;94.21;-17125.47;5018868;28;20029;-85
2023/06/18 01:57:39;;;;;;;17.88;15.95;;;;;;;-148.88;94.53;-17125.47;5018556;28;20056;-85
2023/06/18 02:00:06;;;;;;;18.13;15.35;;;;;;;-148.88;93.89;-17125.47;5018846;28;20030;-85
2023/06/18 02:02:32;;;;;;;17.75;14.55;;;;;;;-148.88;94.33;-17125.47;5019028;28;20144;-86
2023/06/18 02:04:57;;;;;;;16.20;14.30;;;;;;;-148.88;94.36;-17125.47;5018204;28;20028;-85
2023/06/18 02:07:22;;;;;;;20.52;16.27;;;;;;;-148.88;95.94;-17125.47;5018261;28;20032;-86
2023/06/18 02:09:48;;;;;;;19.13;15.60;;;;;;;-148.88;96.67;-17125.47;5036154;28;20116;-85
2023/06/18 02:12:13;;;;;;;18.85;14.82;;;;;;;-148.88;95.89;-17125.47;5035317;28;20033;-86
2023/06/18 02:14:39;;;;;;;17.85;14.23;;;;;;;-148.88;94.82;-17125.47;5035492;28;20021;-86
2023/06/18 02:17:05;;;;;;;18.90;14.45;;;;;;;-148.88;94.26;-17125.47;5035426;28;20028;-85
2023/06/18 02:19:31;;;;;;;17.60;14.52;;;;;;;-148.88;93.99;-17125.47;5035235;28;20488;-86
2023/06/18 02:21:56;;;;;;;19.30;14.93;;;;;;;-148.88;94.32;-17125.47;5035245;28;20029;-86
2023/06/18 02:24:21;;;;;;;19.00;14.75;;;;;;;-148.88;94.58;-17125.47;5035439;28;20029;-85
2023/06/18 02:26:47;;;;;;;21.20;15.43;;;;;;;-148.88;96.02;-17125.47;5035630;28;20022;-86
2023/06/18 02:29:12;;;;;;;24.65;17.02;;;;;;;-148.88;98.09;-17125.47;5017584;28;20022;-86
2023/06/18 02:31:38;;;;;;;20.60;15.65;;;;;;;-148.88;97.40;-17125.47;5017207;28;20028;-85
2023/06/18 02:34:03;;;;;;;16.98;14.38;;;;;;;-148.88;96.84;-17125.47;5017762;28;20037;-86
2023/06/18 02:36:28;;;;;;;18.88;14.88;;;;;;;-148.88;95.92;-17125.47;5017483;28;20063;-86
2023/06/18 02:38:55;;;;;;;20.73;15.68;;;;;;;-148.88;96.08;-17125.47;5035975;28;20033;-86
2023/06/18 02:41:20;;;;;;;19.52;14.82;;;;;;;-148.88;96.01;-17125.47;5017270;28;20041;-85
2023/06/18 02:43:49;;;;;;;17.63;15.25;;;;;;;-148.88;96.37;-17125.47;5017189;28;20021;-85
2023/06/18 02:46:15;;;;;;;19.27;15.38;;;;;;;-148.88;96.57;-17125.47;5017279;28;20060;-86
2023/06/18 02:48:40;;;;;;;18.73;15.10;;;;;;;-148.88;96.59;-17125.47;5017187;28;20039;-85
2023/06/18 02:51:05;;;;;;;19.98;15.35;;;;;;;-148.88;96.55;-17125.47;5034821;28;20395;-86
2023/06/18 02:53:31;;;;;;;18.08;15.30;;;;;;;-148.88;97.01;-17125.47;5034700;28;20079;-85
2023/06/18 02:55:56;;;;;;;20.80;16.83;;;;;;;-148.88;98.55;-17125.47;5017234;28;20459;-86
2023/06/18 02:58:28;;;;;;;24.42;15.73;;;;;;;-148.88;99.21;-17125.47;5017293;28;20028;-86
2023/06/18 03:00:57;;;;;;;18.55;16.35;;;;;;;-148.88;99.09;-17125.47;5035240;28;20036;-86
2023/06/18 03:03:23;;;;;;;19.05;16.50;;;;;;;-148.88;99.62;-17125.47;5035630;28;20037;-85
2023/06/18 03:05:49;;;;;;;19.00;16.35;;;;;;;-148.88;100.00;-17125.47;5035360;28;20021;-86
2023/06/18 03:08:15;;;;;;;18.42;16.20;;;;;;;-148.88;100.00;-17125.47;5017634;28;20022;-86
2023/06/18 03:10:43;;;;;;;20.35;16.80;;;;;;;-148.88;100.00;-17125.47;5035076;28;20029;-86
2023/06/18 03:13:09;;;;;;;19.60;17.58;;;;;;;-148.88;100.00;-17125.47;5035196;28;20530;-86
2023/06/18 03:15:34;;;;;;;21.15;16.75;;;;;;;-148.88;100.00;-17125.47;5036409;28;20030;-87
2023/06/18 03:18:00;;;;;;;20.08;16.65;;;;;;;-148.88;100.00;-17125.47;5018527;28;20028;-86
2023/06/18 03:20:27;;;;;;;20.40;16.50;;;;;;;-148.88;100.00;-17125.47;5035649;28;20608;-85
2023/06/18 03:22:52;;;;;;;21.25;17.02;;;;;;;-148.88;100.00;-17125.47;5035811;28;20017;-86
2023/06/18 03:25:19;;;;;;;20.52;17.05;;;;;;;-148.88;100.00;-17125.47;5018449;28;20025;-86
2023/06/18 03:27:45;;;;;;;19.95;17.50;;;;;;;-148.88;100.00;-17125.47;5020215;28;20021;-86
2023/06/18 03:30:11;;;;;;;19.90;17.52;;;;;;;-148.88;100.00;-17125.47;5036164;28;21328;-86
2023/06/18 03:32:36;;;;;;;20.75;18.10;;;;;;;-148.88;100.00;-17125.47;5018157;28;20025;-86
2023/06/18 03:35:04;;;;;;;20.50;18.25;;;;;;;-148.88;100.00;-17125.47;5019964;28;20088;-86
2023/06/18 03:37:30;;;;;;;21.98;17.63;;;;;;;-148.88;100.00;-17125.47;5017035;28;20113;-85
2023/06/18 03:39:56;;;;;;;20.42;18.20;;;;;;;-148.88;100.00;-17125.47;5033948;28;20049;-86
2023/06/18 03:42:21;;;;;;;24.88;18.80;;;;;;;-148.88;100.00;-17125.47;5016123;28;20064;-86
2023/06/18 03:44:47;;;;;;;21.13;17.23;;;;;;;-148.88;100.00;-17125.47;5033985;28;20022;-86
2023/06/18 03:47:12;;;;;;;21.85;17.88;;;;;;;-148.88;100.00;-17125.47;5033861;28;20126;-86
2023/06/18 03:49:38;;;;;;;20.15;17.77;;;;;;;-148.88;100.00;-17125.47;5034121;28;20472;-86
2023/06/18 03:52:04;;;;;;;21.73;18.92;;;;;;;-148.88;100.00;-17125.47;5033527;28;20029;-85
2023/06/18 03:54:29;;;;;;;22.63;19.45;;;;;;;-148.88;100.00;-17125.47;5034141;28;20128;-86
2023/06/18 03:56:54;;;;;;;21.95;19.00;;;;;;;-148.88;100.00;-17125.47;5015820;28;20391;-84
2023/06/18 03:59:20;;;;;;;22.23;19.02;;;;;;;-148.88;100.00;-17125.47;5033887;28;20069;-86
2023/06/18 04:01:45;;;;;;;22.23;18.73;;;;;;;-148.88;100.00;-17125.47;5033388;28;20108;-85
2023/06/18 04:04:10;;;;;;;22.60;18.35;;;;;;;-148.88;100.00;-17125.47;5015764;28;20024;-86
2023/06/18 04:06:36;;;;;;;21.77;17.75;;;;;;;-148.88;100.00;-17125.47;5033215;28;20029;-86
2023/06/18 04:09:02;;;;;;;23.77;18.20;;;;;;;-148.88;100.00;-17125.47;5033643;28;20025;-85
2023/06/18 04:11:27;;;;;;;22.85;18.73;;;;;;;-148.88;100.00;-17125.47;5015380;28;20025;-85
2023/06/18 04:13:53;;;;;;;21.02;18.80;;;;;;;-148.88;100.00;-17125.47;5033250;28;20079;-85
2023/06/18 04:16:21;;;;;;;22.55;18.88;;;;;;;-148.88;100.00;-17125.47;5033517;28;20028;-86
2023/06/18 04:18:46;;;;;;;23.67;19.23;;;;;;;-148.88;100.00;-17125.47;5033122;28;20021;-86
2023/06/18 04:21:11;;;;;;;22.33;19.88;;;;;;;-148.88;100.00;-17125.47;5033082;28;20024;-86
2023/06/18 04:23:37;;;;;;;22.17;19.77;;;;;;;-148.88;100.00;-17125.47;5015921;28;20200;-86
2023/06/18 04:26:02;;;;;;;26.35;21.27;;;;;;;-148.88;100.00;-17125.47;5033232;28;20031;-86
2023/06/18 04:28:27;;;;;;;23.23;20.73;;;;;;;-148.88;100.00;-17125.47;5015988;28;20104;-86
2023/06/18 04:30:53;;;;;;;25.08;21.70;;;;;;;-148.88;100.00;-17125.47;5033614;28;20048;-87
2023/06/18 04:33:18;;;;;;;23.95;19.95;;;;;;;-148.88;100.00;-17125.47;5034045;28;20021;-85
2023/06/18 04:35:45;;;;;;;24.35;21.60;;;;;;;-148.88;100.00;-17125.47;5015476;28;20408;-87
2023/06/18 04:38:11;;;;;;;23.73;20.63;;;;;;;-148.88;100.00;-17125.47;5033421;28;20502;-87
2023/06/18 04:40:36;;;;;;;22.52;20.05;;;;;;;-148.88;100.00;-17125.47;5015050;28;20033;-86
2023/06/18 04:43:02;;;;;;;28.08;20.70;;;;;;;-148.88;100.00;-17125.47;5015263;28;20051;-86
2023/06/18 04:45:27;;;;;;;24.25;20.20;;;;;;;-148.88;100.00;-17125.47;5033210;28;20029;-87
2023/06/18 04:47:53;;;;;;;24.13;20.33;;;;;;;-148.88;100.00;-17125.47;5015163;28;20025;-87
2023/06/18 04:50:19;;;;;;;22.58;20.05;;;;;;;-148.88;100.00;-17125.47;5032837;28;20439;-88
2023/06/18 04:52:45;;;;;;;23.23;20.73;;;;;;;-148.88;100.00;-17125.47;5032960;28;20041;-87
2023/06/18 04:55:10;;;;;;;23.33;19.85;;;;;;;-148.88;100.00;-17125.47;5032923;28;20075;-89
2023/06/18 04:57:36;;;;;;;22.27;19.90;;;;;;;-148.88;100.00;-17125.47;5032892;28;20112;-86
2023/06/18 05:00:08;;;;;;;24.95;19.52;;;;;;;-148.88;100.00;-17125.47;5032643;28;20133;-86
2023/06/18 05:02:34;;;;;;;23.52;20.80;;;;;;;-148.88;100.00;-17125.47;5033314;28;20025;-85
2023/06/18 05:05:00;;;;;;;22.35;18.92;;;;;;;-148.88;100.00;-17125.47;5033232;28;20033;-84
2023/06/18 05:07:26;;;;;;;21.60;18.58;;;;;;;-148.88;100.00;-17125.47;5032770;28;20033;-86
2023/06/18 05:09:51;;;;;;;21.73;18.83;;;;;;;-148.88;100.00;-17125.47;5032631;28;20017;-85
2023/06/18 05:12:16;;;;;;;21.85;19.55;;;;;;;-148.88;100.00;-17125.47;5032708;28;20518;-86
2023/06/18 05:14:42;;;;;;;23.75;19.85;;;;;;;-148.88;100.00;-17125.47;5032508;28;20482;-85
2023/06/18 05:17:07;;;;;;;25.92;18.88;;;;;;;-148.88;100.00;-17125.47;5032529;28;20056;-84
2023/06/18 05:19:32;;;;;;;21.45;19.02;;;;;;;-148.88;100.00;-17125.47;5034579;28;20079;-84
2023/06/18 05:21:58;;;;;;;22.77;19.38;;;;;;;-148.88;100.00;-17125.47;5036098;28;20111;-85
2023/06/18 05:24:23;;;;;;;23.88;19.30;;;;;;;-148.88;100.00;-17125.47;5018275;28;20021;-84
2023/06/18 05:26:48;;;;;;;22.73;20.15;;;;;;;-148.88;100.00;-17125.47;5035932;28;20472;-85
2023/06/18 05:29:16;;;;;;;26.00;20.27;;;;;;;-148.88;100.00;-17125.47;5036307;28;20025;-85
2023/06/18 05:31:41;;;;;;;21.02;18.83;;;;;;;-148.88;100.00;-17125.47;5018129;28;20033;-86
2023/06/18 05:34:06;;;;;;;22.67;19.17;;;;;;;-148.88;100.00;-17125.47;5035796;28;20442;-85
2023/06/18 05:36:32;;;;;;;24.10;19.40;;;;;;;-148.88;100.00;-17125.47;5035908;28;20026;-84
2023/06/18 05:39:00;;;;;;;22.58;18.23;;;;;;;-148.88;100.00;-17125.47;5035947;28;20033;-84
2023/06/18 05:41:26;;;;;;;21.30;18.58;;;;;;;-148.88;100.00;-17125.47;5036193;28;20053;-86
2023/06/18 05:43:52;;;;;;;21.98;18.58;;;;;;;-148.88;100.00;-17125.47;5036142;28;20033;-88
2023/06/18 05:46:18;;;;;;;20.02;17.58;;;;;;;-148.88;100.00;-17125.47;5036396;28;20099;-85
2023/06/18 05:48:43;;;;;;;19.75;17.35;;;;;;;-148.88;100.00;-17125.47;5036194;28;20479;-88
2023/06/18 05:51:08;;;;;;;21.83;19.42;;;;;;;-148.88;100.00;-17125.47;5035830;28;20021;-87
2023/06/18 05:53:34;;;;;;;21.88;17.95;;;;;;;-148.88;100.00;-17125.47;5017692;28;20112;-87
2023/06/18 05:55:59;;;;;;;21.23;18.40;;;;;;;-148.88;100.00;-17125.47;5035467;28;20411;-86
2023/06/18 05:58:24;;;;;;;22.52;19.60;;;;;;;-148.88;100.00;-17125.47;5017699;28;20026;-86
2023/06/18 06:00:50;;;;;;;22.45;19.15;;;;;;;-148.88;100.00;-17125.47;5035165;28;20025;-86
2023/06/18 06:03:15;;;;;;;24.63;20.75;;;;;;;-148.88;100.00;-17125.47;5035298;28;20021;-85
2023/06/18 06:05:41;;;;;;;22.17;19.40;;;;;;;-148.88;100.00;-17125.47;5035256;28;20032;-85
2023/06/18 06:08:06;;;;;;;22.52;19.58;;;;;;;-148.88;100.00;-17125.47;5035321;28;20025;-85
2023/06/18 06:10:31;;;;;;;26.33;21.25;;;;;;;-148.88;100.00;-17125.47;5035118;28;20032;-86
2023/06/18 06:12:57;;;;;;;22.95;20.00;;;;;;;-148.88;100.00;-17125.47;5035515;28;20049;-82
2023/06/18 06:15:22;;;;;;;22.92;20.42;;;;;;;-148.88;100.00;-17125.47;5035436;28;20111;-84
2023/06/18 06:17:48;;;;;;;21.40;18.75;;;;;;;-148.88;100.00;-17125.47;5035575;28;20510;-87
2023/06/18 06:20:13;;;;;;;21.77;18.50;;;;;;;-148.88;100.00;-17125.47;5034984;28;20028;-84
2023/06/18 06:22:39;;;;;;;20.35;18.20;;;;;;;-148.88;100.00;-17125.47;5017349;28;20105;-84
2023/06/18 06:25:05;;;;;;;23.17;18.48;;;;;;;-148.88;100.00;-17125.47;5018355;28;20044;-84
2023/06/18 06:27:30;;;;;;;21.48;18.30;;;;;;;-148.88;100.00;-17125.47;5017761;28;20061;-85
2023/06/18 06:29:55;;;;;;;20.02;17.48;;;;;;;-148.88;100.00;-17125.47;5034926;28;20100;-83
2023/06/18 06:32:21;;;;;;;20.85;17.48;;;;;;;-148.88;100.00;-17125.47;5017150;28;20028;-84
2023/06/18 06:34:47;;;;;;;20.60;17.90;;;;;;;-148.88;99.96;-17125.47;5017538;28;20119;-85
2023/06/18 06:37:12;;;;;;;20.77;17.00;;;;;;;-148.88;99.47;-17125.47;5017627;28;20021;-85
2023/06/18 06:39:38;;;;;;;16.05;14.43;;;;;;;-148.88;96.09;-17125.47;5017177;28;20034;-86
2023/06/18 06:42:04;;;;;;;17.73;14.68;;;;;;;-148.88;95.29;-17125.47;5017185;28;20626;-86
2023/06/18 06:44:29;;;;;;;17.58;14.65;;;;;;;-148.88;96.00;-17125.47;5035079;28;20029;-88
2023/06/18 06:47:06;;;;;;;16.77;14.95;;;;;;;-148.88;94.94;-17125.47;5035188;28;20064;-87
2023/06/18 06:49:31;;;;;;;14.82;13.25;;;;;;;-148.88;91.95;-17125.47;5017844;28;20167;-84
2023/06/18 06:51:59;;;;;;;17.23;14.00;;;;;;;-148.88;92.70;-17125.47;5034772;28;20029;-84
2023/06/18 06:54:25;;;;;;;16.85;14.57;;;;;;;-148.88;90.60;-17125.47;5034834;28;20399;-85
2023/06/18 06:56:58;;;;;;;16.65;13.65;;;;;;;-148.88;90.68;-17125.47;5016937;28;20476;-84
2023/06/18 06:59:24;;;;;;;17.10;13.43;;;;;;;-148.88;88.41;-17125.47;5034465;28;20033;-86
2023/06/18 07:01:49;;;;;;;15.30;13.13;;;;;;;-148.88;87.21;-17125.47;5034357;28;20108;-85
2023/06/18 07:04:15;;;;;;;15.13;13.15;;;;;;;-148.88;86.67;-17125.47;5034808;28;20049;-84
2023/06/18 07:06:40;;;;;;;16.20;13.88;;;;;;;-148.88;84.35;-17125.47;5016829;28;20029;-84
2023/06/18 07:09:06;;;;;;;15.25;13.23;;;;;;;-148.88;85.88;-17125.47;5034366;28;20032;-85
2023/06/18 07:11:33;;;;;;;14.25;12.75;;;;;;;-148.88;85.58;-17125.47;5016495;28;20032;-85
2023/06/18 07:13:59;;;;;;;15.55;12.90;;;;;;;-148.88;87.16;-17125.47;5034349;28;20029;-84
2023/06/18 07:16:25;;;;;;;15.60;13.32;;;;;;;-148.88;84.94;-17125.47;5033828;28;20040;-84
2023/06/18 07:18:50;;;;;;;15.13;12.13;;;;;;;-148.88;83.48;-17125.47;5034201;28;20384;-84
2023/06/18 07:21:17;;;;;;;15.45;13.23;;;;;;;-148.88;81.35;-17125.47;5034103;28;20080;-84
2023/06/18 07:23:42;;;;;;;17.10;13.85;;;;;;;-148.88;82.02;-17125.47;5015697;28;20124;-85
2023/06/18 07:26:08;;;;;;;15.23;12.88;;;;;;;-148.88;83.04;-17125.47;5016167;28;20116;-85
2023/06/18 07:28:33;;;;;;;15.90;13.60;;;;;;;-148.88;83.55;-17125.47;5016512;28;20025;-84
2023/06/18 07:30:59;;;;;;;14.45;12.82;;;;;;;-148.88;81.99;-17125.47;5033641;28;20053;-85
2023/06/18 07:33:24;;;;;;;15.60;12.70;;;;;;;-148.88;82.27;-17125.47;5016558;28;20029;-83
2023/06/18 07:35:52;;;;;;;14.90;13.25;;;;;;;-148.88;81.54;-17125.47;5033913;28;20036;-85
2023/06/18 07:38:18;;;;;;;14.52;12.48;;;;;;;-148.88;82.69;-17125.47;5015851;28;20546;-84
2023/06/18 07:40:43;;;;;;;17.35;13.27;;;;;;;-148.88;79.60;-17125.47;5016192;28;20032;-84
2023/06/18 07:43:09;;;;;;;14.85;12.45;;;;;;;-148.88;78.56;-17125.47;5015869;28;20021;-85
2023/06/18 07:45:35;;;;;;;14.13;12.07;;;;;;;-148.88;77.82;-17125.47;5016272;28;20113;-85
2023/06/18 07:48:00;;;;;;;14.52;11.35;;;;;;;-148.88;78.76;-17125.47;5033444;28;20032;-85
2023/06/18 07:50:36;;;;;;;15.73;12.18;;;;;;;-148.88;78.82;-17125.47;5015593;28;20017;-84
2023/06/18 07:53:01;;;;;;;13.85;11.82;;;;;;;-148.88;78.93;-17125.47;5016753;28;20021;-85
2023/06/18 07:55:29;;;;;;;14.40;12.80;;;;;;;-148.88;81.42;-17125.47;5015773;28;20132;-84
2023/06/18 07:57:57;;;;;;;16.13;13.30;;;;;;;-148.88;83.24;-17125.47;5033700;28;20060;-85
2023/06/18 08:00:24;;;;;;;13.43;12.13;;;;;;;-148.88;80.17;-17125.47;5033197;28;20045;-85
2023/06/18 08:02:49;;;;;;;14.07;12.52;;;;;;;-148.88;80.49;-17125.47;5016161;28;20036;-85
2023/06/18 08:05:15;;;;;;;14.20;12.65;;;;;;;-148.88;79.19;-17125.47;5033293;28;20407;-85
2023/06/18 08:07:40;;;;;;;13.32;11.98;;;;;;;-148.88;79.32;-17125.47;5032974;28;20056;-85
2023/06/18 08:10:06;;;;;;;13.52;12.13;;;;;;;-148.88;77.09;-17125.47;5033442;28;20029;-84
2023/06/18 08:12:32;;;;;;;14.57;12.65;;;;;;;-148.88;78.99;-17125.47;5033002;28;20112;-84
2023/06/18 08:14:57;;;;;;;13.45;11.85;;;;;;;-148.88;76.32;-17125.47;5033287;28;20108;-84
2023/06/18 08:17:23;;;;;;;14.02;11.50;;;;;;;-148.88;77.29;-17125.47;5032943;28;20096;-84
2023/06/18 08:19:49;;;;;;;13.90;11.10;;;;;;;-148.88;78.40;-17125.47;5033081;28;20034;-85
2023/06/18 08:22:16;;;;;;;13.70;11.98;;;;;;;-148.88;72.52;-17125.47;5033528;28;20022;-84
2023/06/18 08:24:41;;;;;;;13.50;11.63;;;;;;;-148.88;71.81;-17125.47;5033401;28;20028;-84
2023/06/18 08:27:07;;;;;;;13.35;11.95;;;;;;;-148.88;71.18;-17125.47;5032904;28;20109;-84
2023/06/18 08:29:33;;;;;;;12.68;11.38;;;;;;;-148.88;70.36;-17125.47;5033417;28;20032;-84
2023/06/18 08:32:04;;;;;;;12.48;10.80;;;;;;;-148.88;72.35;-17125.47;5032837;28;20030;-84
2023/06/18 08:34:36;;;;;;;14.02;10.95;;;;;;;-148.88;70.84;-17125.47;5015531;28;20021;-84
2023/06/18 08:37:02;;;;;;;12.55;10.63;;;;;;;-148.88;66.31;-17125.47;5015903;28;20407;-84
2023/06/18 08:39:28;;;;;;;11.52;10.32;;;;;;;-148.88;68.58;-17125.47;5033168;28;20026;-83
2023/06/18 08:41:54;;;;;;;11.85;9.77;;;;;;;-148.88;69.22;-17125.47;5015769;28;20056;-83
2023/06/18 08:44:23;;;;;;;12.52;9.68;;;;;;;-148.88;66.63;-17125.47;5033427;28;20396;-83
2023/06/18 08:46:49;;;;;;;12.05;10.02;;;;;;;-148.88;63.81;-17125.47;5033603;28;20543;-83
2023/06/18 08:49:16;;;;;;;12.52;9.35;;;;;;;-148.88;64.78;-17125.47;5033069;28;20025;-83
2023/06/18 08:51:41;;;;;;;11.13;10.02;;;;;;;-148.88;62.37;-17125.47;5015478;28;20514;-84
2023/06/18 08:54:07;;;;;;;10.70;9.57;;;;;;;-148.88;59.38;-17125.47;5036645;28;20025;-83
2023/06/18 08:56:36;;;;;;;12.18;9.77;;;;;;;-148.88;62.50;-17125.47;5037572;28;20025;-83
2023/06/18 08:59:03;;;;;;;10.40;8.73;;;;;;;-148.88;59.49;-17125.47;5019376;28;20028;-83
2023/06/18 09:01:30;;;;;;;11.05;8.45;;;;;;;-148.88;57.00;-17125.47;5037382;28;20021;-85
2023/06/18 09:04:00;;;;;;;11.40;8.90;;;;;;;-148.88;56.86;-17125.47;5036608;28;20033;-84
2023/06/18 09:06:25;;;;;;;8.55;7.68;;;;;;;-148.88;57.21;-17125.47;5036535;28;20033;-84
2023/06/18 09:08:51;;;;;;;12.50;8.30;;;;;;;-148.88;54.98;-17125.47;5018641;28;20085;-85
2023/06/18 09:11:17;;;;;;;11.38;7.88;;;;;;;-148.88;51.15;-17125.47;5018501;28;20068;-84
2023/06/18 09:13:43;;;;;;;9.90;7.65;;;;;;;-148.88;50.07;-17125.47;5019610;28;20408;-84
2023/06/18 09:16:10;;;;;;;10.50;7.82;;;;;;;-148.88;48.75;-17125.47;5018551;28;20025;-84
2023/06/18 09:18:35;;;;;;;9.13;7.95;;;;;;;-148.88;50.74;-17125.47;5018473;28;20034;-84
2023/06/18 09:21:03;;;;;;;8.68;7.43;;;;;;;-148.88;52.02;-17125.47;5036259;28;20095;-85
2023/06/18 09:23:29;;;;;;;7.90;6.63;;;;;;;-148.88;47.39;-17125.47;5036520;28;20029;-84
2023/06/18 09:25:55;;;;;;;9.00;7.35;;;;;;;-148.88;46.66;-17125.47;5018925;28;20030;-84
2023/06/18 09:28:22;;;;;;;7.15;6.18;;;;;;;-148.88;42.64;-17125.47;5018377;28;20083;-84
2023/06/18 09:31:08;;;;;;;9.32;6.60;;;;;;;-148.88;46.34;-17125.47;5018382;28;20018;-85
2023/06/18 09:33:35;;;;;;;9.85;6.93;;;;;;;-148.88;43.53;-17125.47;5036818;28;20053;-84
2023/06/18 09:36:06;;;;;;;9.38;7.75;;;;;;;-148.88;47.55;-17125.47;5036358;28;20546;-84
2023/06/18 09:38:39;;;;;;;10.77;7.60;;;;;;;-148.88;46.16;-17125.47;5018832;28;20059;-83
2023/06/18 09:41:13;;;;;;;10.13;7.68;;;;;;;-148.88;45.43;-17125.47;5036946;28;20032;-83
2023/06/18 09:43:41;;;;;;;7.28;6.55;;;;;;;-148.88;44.88;-17125.47;5037224;28;20033;-82
2023/06/18 09:46:07;;;;;;;9.25;6.97;;;;;;;-148.88;46.38;-17125.47;5018999;28;20029;-82
2023/06/18 09:48:37;;;;;;;10.70;7.50;;;;;;;-148.88;43.84;-17125.47;5019154;28;20506;-82
2023/06/18 09:51:04;;;;;;;9.45;7.07;;;;;;;-148.88;44.67;-17125.47;5019343;28;20033;-83
2023/06/18 09:53:30;;;;;;;11.18;6.95;;;;;;;-148.88;42.25;-17125.47;5036666;28;20037;-82
2023/06/18 09:56:10;;;;;;;8.07;6.88;;;;;;;-148.88;43.46;-17125.47;5036679;28;20061;-82
2023/06/18 09:58:44;;;;;;;9.30;6.97;;;;;;;-148.88;41.74;-17125.47;5018571;28;20029;-83
2023/06/18 10:01:10;;;;;;;8.15;6.68;;;;;;;-148.88;42.68;-17125.47;5018833;28;20392;-82
2023/06/18 10:03:36;;;;;;;9.80;7.85;;;;;;;-148.88;46.26;-17125.47;5019408;28;20450;-82
2023/06/18 10:06:12;;;;;;;7.75;6.95;;;;;;;-148.88;44.42;-17125.47;5035548;28;20523;-82
2023/06/18 10:08:38;;;;;;;8.32;7.43;;;;;;;-148.88;43.30;-17125.47;5036384;28;20021;-83
2023/06/18 10:11:07;;;;;;;8.85;7.53;;;;;;;-148.88;42.50;-17125.47;5036138;28;20048;-82
2023/06/18 10:13:38;;;;;;;9.10;7.25;;;;;;;-148.88;41.98;-17125.47;5018364;28;20029;-82
2023/06/18 10:16:05;;;;;;;8.73;7.40;;;;;;;-148.88;42.03;-17125.47;5036061;28;20439;-82
2023/06/18 10:18:31;;;;;;;8.45;7.15;;;;;;;-148.88;42.06;-17125.47;5018313;28;20083;-83
2023/06/18 10:21:03;;;;;;;9.45;6.97;;;;;;;-148.88;41.46;-17125.47;5017726;28;20030;-82
2023/06/18 10:23:32;;;;;;;9.20;6.82;;;;;;;-148.88;42.51;-17125.47;5035429;28;20021;-82
2023/06/18 10:25:58;;;;;;;9.10;7.22;;;;;;;-148.88;43.34;-17125.47;5035688;28;20064;-83
2023/06/18 10:28:24;;;;;;;7.63;6.80;;;;;;;-148.88;42.21;-17125.47;5018151;28;20029;-83
2023/06/18 10:30:50;;;;;;;7.90;7.10;;;;;;;-148.88;43.54;-17125.47;5036698;28;20456;-83
2023/06/18 10:33:16;;;;;;;7.45;6.75;;;;;;;-148.88;42.12;-17125.47;5037048;28;20056;-81
2023/06/18 10:35:43;;;;;;;8.57;6.88;;;;;;;-148.88;39.91;-17125.47;5019836;28;20034;-83
2023/06/18 10:38:09;;;;;;;8.75;6.50;;;;;;;-148.88;40.04;-17125.47;5019669;28;20025;-83
2023/06/18 10:40:40;;;;;;;7.53;6.40;;;;;;;-148.88;40.33;-17125.47;5036089;28;20078;-82
2023/06/18 10:43:09;;;;;;;7.97;7.15;;;;;;;-148.88;38.51;-17125.47;5035987;28;20502;-82
2023/06/18 10:45:35;;;;;;;7.20;6.50;;;;;;;-148.88;36.65;-17125.47;5035971;28;20035;-82
2023/06/18 10:48:18;;;;;;;7.20;6.00;;;;;;;-148.88;39.17;-17125.47;5017414;28;20026;-83
2023/06/18 10:51:14;;;;;;;7.63;6.65;;;;;;;-148.88;37.94;-17125.47;5018386;28;20021;-83
2023/06/18 10:53:41;;;;;;;7.60;6.05;;;;;;;-148.88;38.92;-17125.47;5035110;28;20052;-83